Amarant — CQSF — position and weather

sailwx.info

Track history (hours):
 
Tides and Currents Weather Stations Pressure Air Temp Water Temp Dewpoint Dewpoint Depression Visibility Wind Speed Wind Dir Waves Ship Positions

Amarant

Last reported at 2015-Apr-18 18:33 UTC. Time now 2015-Apr-18 19:23 UTC.
Position N 57°45' E 010°57'.

Length 120 m; draft 7.3 m.

Type: Tanker. MMSI: 255623000.

Date/timePositionNaut miles runAvg speedWind from/ knotsBaromVisibWave heightAir tempDewpointWater temp
2015-Apr-18 18:33N 57°45' E 010°57'1312.5
2015-Apr-18 17:33N 57°36' E 011°13'1312.5
2015-Apr-18 16:33N 57°26' E 011°27'1313.1
2015-Apr-18 15:33N 57°14' E 011°36'1312.7
2015-Apr-18 14:33N 57°02' E 011°43'1212.5
2015-Apr-18 13:33N 56°50' E 011°51'1312.7
2015-Apr-18 12:33N 56°37' E 011°57'1312.6
2015-Apr-18 11:33N 56°26' E 012°06'1212.3
2015-Apr-18 10:33N 56°16' E 012°20'1313.3
2015-Apr-18 09:34N 56°06' E 012°35'1313.4
2015-Apr-18 08:34N 55°54' E 012°44'1313.0
2015-Apr-18 07:33N 55°41' E 012°41'1111.2
2015-Apr-18 06:33N 55°30' E 012°42'1211.5
2015-Apr-18 05:33N 55°18' E 012°42'1312.6
2015-Apr-18 04:34N 55°16' E 013°04'1313.0
2015-Apr-18 03:33N 55°16' E 013°27'16812.0
2015-Apr-17 13:33N 57°08' E 017°13'1413.6
2015-Apr-17 12:33N 57°21' E 017°19'1413.6
2015-Apr-17 11:32N 57°34' E 017°25'9 0.3
2015-Apr-16 04:27N 57°26' E 017°22'1213.6
2015-Apr-16 03:33N 57°14' E 017°17'12912.6
2015-Apr-15 17:21N 55°30' E 014°59'1414.6
2015-Apr-15 16:21N 55°22' E 014°38'1214.5
2015-Apr-15 15:33N 55°14' E 014°24'1313.4
2015-Apr-15 14:33N 55°10' E 014°01'1414.4
2015-Apr-15 13:33N 55°10' E 013°36'1713.8
2015-Apr-15 12:20N 55°12' E 013°06'1114.0
2015-Apr-15 11:31N 55°16' E 012°47'1010.7
2015-Apr-15 10:33N 55°25' E 012°40'1312.7
2015-Apr-15 09:34N 55°38' E 012°42'1413.9
2015-Apr-15 08:33N 55°52' E 012°41'1313.5
2015-Apr-15 07:33N 56°05' E 012°35'1414.2
2015-Apr-15 06:33N 56°16' E 012°20'1815.1
2015-Apr-15 05:22N 56°33' E 012°12'1215.1
2015-Apr-15 04:33N 56°45' E 012°06'1515.3
2015-Apr-15 03:33N 57°00' E 011°59'1515.0
2015-Apr-15 02:33N 57°15' E 011°51'1515.0
2015-Apr-15 01:33N 57°29' E 011°41'1212.0
2015-Apr-15 00:34N 57°40' E 011°41'0 0.1
2015-Apr-14 23:34N 57°40' E 011°41'0 0.0
2015-Apr-14 22:33N 57°40' E 011°41'1 1.1
2015-Apr-14 21:34N 57°39' E 011°41'1110.8
2015-Apr-14 20:33N 57°39' E 011°21'1514.8
2015-Apr-14 19:33N 57°45' E 010°55'18514.0
2015-Apr-14 06:15N 55°40' E 006°44'1014.3
2015-Apr-14 05:33N 55°32' E 006°36'3916.1
2015-Apr-14 03:10N 54°58' E 006°01'5 7.4
2015-Apr-14 02:32N 54°55' E 005°57'1514.5
2015-Apr-14 01:29N 54°42' E 005°43'1814.5
2015-Apr-14 00:15N 54°26' E 005°27'1014.4
2015-Apr-13 23:33N 54°18' E 005°19'1414.2
2015-Apr-13 22:33N 54°05' E 005°07'1414.0
2015-Apr-13 21:33N 53°51' E 005°01'1413.7
2015-Apr-13 20:33N 53°39' E 004°52'1313.3
2015-Apr-13 19:33N 53°27' E 004°43'1413.4
2015-Apr-13 18:31N 53°14' E 004°33'1313.5
2015-Apr-13 17:33N 53°02' E 004°23'1313.5
2015-Apr-13 16:33N 52°50' E 004°14'1413.3
2015-Apr-13 15:32N 52°40' E 003°59'1413.4
2015-Apr-13 14:28N 52°30' E 003°42'1413.3
2015-Apr-13 13:24N 52°18' E 003°31'1614.1
2015-Apr-13 12:16N 52°03' E 003°24'1014.3
2015-Apr-13 11:33N 51°53' E 003°20'1413.6
2015-Apr-13 10:32N 51°39' E 003°21'1515.4
2015-Apr-13 09:33N 51°26' E 003°34'1312.5
2015-Apr-13 08:33N 51°21' E 003°52'8 8.3
2015-Apr-13 07:34N 51°22' E 004°05'7 7.4
2015-Apr-13 06:34N 51°21' E 004°17'4 3.7
2015-Apr-13 05:33N 51°17' E 004°20'3 2.7
2015-Apr-13 04:33N 51°15' E 004°22'0 0.0
2015-Apr-13 03:34N 51°15' E 004°22'0 0.0
2015-Apr-13 02:33N 51°15' E 004°22'0 0.0
2015-Apr-13 01:33N 51°15' E 004°22'0 0.0
2015-Apr-13 00:33N 51°15' E 004°22'0 0.0
2015-Apr-12 23:33N 51°15' E 004°22'0 0.0
2015-Apr-12 22:34N 51°15' E 004°22'0 0.0
2015-Apr-12 21:33N 51°15' E 004°22'0 0.0
2015-Apr-12 20:33N 51°15' E 004°22'0 0.0
2015-Apr-12 19:33N 51°15' E 004°22'0 0.0
2015-Apr-12 18:33N 51°15' E 004°22'0 0.0
2015-Apr-12 17:33N 51°15' E 004°22'0 0.0
2015-Apr-12 16:33N 51°15' E 004°22'0 0.0
2015-Apr-12 15:33N 51°15' E 004°22'0 0.0
2015-Apr-12 14:33N 51°15' E 004°22'0 0.0
2015-Apr-12 13:33N 51°15' E 004°22'0 0.0
2015-Apr-12 12:34N 51°15' E 004°22'0 0.0
2015-Apr-12 11:33N 51°15' E 004°22'0 0.0
2015-Apr-12 10:33N 51°15' E 004°22'1 1.3
2015-Apr-12 09:32N 51°16' E 004°21'0 0.0
2015-Apr-12 08:32N 51°16' E 004°21'0 0.0
2015-Apr-12 07:32N 51°16' E 004°21'0 0.0
2015-Apr-12 06:29N 51°16' E 004°21'0 0.0
2015-Apr-12 05:32N 51°16' E 004°21'0 0.0
2015-Apr-12 04:32N 51°16' E 004°21'0 0.0
2015-Apr-12 03:32N 51°16' E 004°21'0 0.0
2015-Apr-12 02:32N 51°16' E 004°21'0 0.0
2015-Apr-12 01:32N 51°16' E 004°21'0 0.0
2015-Apr-12 00:32N 51°16' E 004°21'0 0.0
2015-Apr-11 23:32N 51°16' E 004°21'0 0.0
2015-Apr-11 22:32N 51°16' E 004°21'0 0.0
2015-Apr-11 21:32N 51°16' E 004°21'0 0.0
2015-Apr-11 20:32N 51°16' E 004°21'0 0.0
2015-Apr-11 19:32N 51°16' E 004°21'0 0.0
2015-Apr-11 18:32N 51°16' E 004°21'0 0.0
2015-Apr-11 17:32N 51°16' E 004°21'0 0.0
2015-Apr-11 16:32N 51°16' E 004°21'0 0.0
2015-Apr-11 15:33N 51°16' E 004°21'2 2.3
2015-Apr-11 14:33N 51°18' E 004°20'3 3.1
2015-Apr-11 13:33N 51°21' E 004°17'0 0.2
2015-Apr-11 12:33N 51°21' E 004°17'3 3.2
2015-Apr-11 11:33N 51°23' E 004°13'8 7.7
2015-Apr-11 10:34N 51°26' E 004°01'9 9.2
2015-Apr-11 09:33N 51°21' E 003°49'9 9.4
2015-Apr-11 08:33N 51°26' E 003°36'9 8.7
2015-Apr-11 07:33N 51°32' E 003°25'1212.5
2015-Apr-11 06:33N 51°43' E 003°16'10 9.5
2015-Apr-11 05:32N 51°52' E 003°19'3912.7
2015-Apr-11 02:26N 52°31' E 003°28'1213.5
2015-Apr-11 01:33N 52°42' E 003°37'1414.1
2015-Apr-11 00:33N 52°53' E 003°51'1413.6
2015-Apr-10 23:33N 53°02' E 004°08'1312.7
2015-Apr-10 22:32N 53°11' E 004°24'1211.8
2015-Apr-10 21:33N 53°22' E 004°31'1212.1
2015-Apr-10 20:33N 53°33' E 004°37'1212.4
2015-Apr-10 19:33N 53°45' E 004°41'1313.0
2015-Apr-10 18:33N 53°58' E 004°48'1513.3
2015-Apr-10 17:25N 54°12' E 004°58'21113.0
2015-Apr-10 01:10N 57°09' E 008°21'912.2
2015-Apr-10 00:27N 57°14' E 008°35'1312.4
2015-Apr-09 23:22N 57°21' E 008°56'5711.8
2015-Apr-09 18:31N 57°49' E 010°30'1110.7
2015-Apr-09 17:31N 57°48' E 010°50'1211.9
2015-Apr-09 16:33N 57°40' E 011°05'1312.8
2015-Apr-09 15:33N 57°31' E 011°21'1313.4
2015-Apr-09 14:33N 57°19' E 011°32'1313.1
2015-Apr-09 13:33N 57°07' E 011°40'1313.0
2015-Apr-09 12:33N 56°54' E 011°48'1312.7
2015-Apr-09 11:33N 56°42' E 011°55'1312.9
2015-Apr-09 10:33N 56°30' E 012°00'1312.9
2015-Apr-09 09:33N 56°20' E 012°15'1413.5
2015-Apr-09 08:33N 56°09' E 012°30'1414.5
2015-Apr-09 07:33N 55°57' E 012°43'1413.8
2015-Apr-09 06:34N 55°43' E 012°41'1111.1
2015-Apr-09 05:34N 55°32' E 012°43'1312.9
2015-Apr-09 04:33N 55°19' E 012°40'1312.7
2015-Apr-09 03:34N 55°15' E 013°01'1313.1
2015-Apr-09 02:33N 55°15' E 013°24'1313.2
2015-Apr-09 01:33N 55°15' E 013°47'1413.5
2015-Apr-09 00:33N 55°14' E 014°11'1312.5
2015-Apr-08 23:33N 55°22' E 014°28'1313.0
2015-Apr-08 22:33N 55°29' E 014°47'1313.2
2015-Apr-08 21:33N 55°36' E 015°07'1313.3
2015-Apr-08 20:33N 55°43' E 015°27'  
Track history (hours):
 
Tides and Currents Weather Stations Pressure Air Temp Water Temp Dewpoint Dewpoint Depression Visibility Wind Speed Wind Dir Waves Ship Positions

Amarant

Last reported at 2015-Apr-18 18:33 UTC. Time now 2015-Apr-18 19:23 UTC.
Position N 57°45' E 010°57'.

Length 120 m; draft 7.3 m.

Type: Tanker. MMSI: 255623000.

Date/timePositionNaut miles runAvg speedWind from/ knotsBaromVisibWave heightAir tempDewpointWater temp
2015-Apr-18 18:33N 57°45' E 010°57'1312.5
2015-Apr-18 17:33N 57°36' E 011°13'1312.5
2015-Apr-18 16:33N 57°26' E 011°27'1313.1
2015-Apr-18 15:33N 57°14' E 011°36'1312.7
2015-Apr-18 14:33N 57°02' E 011°43'1212.5
2015-Apr-18 13:33N 56°50' E 011°51'1312.7
2015-Apr-18 12:33N 56°37' E 011°57'1312.6
2015-Apr-18 11:33N 56°26' E 012°06'1212.3
2015-Apr-18 10:33N 56°16' E 012°20'1313.3
2015-Apr-18 09:34N 56°06' E 012°35'1313.4
2015-Apr-18 08:34N 55°54' E 012°44'1313.0
2015-Apr-18 07:33N 55°41' E 012°41'1111.2
2015-Apr-18 06:33N 55°30' E 012°42'1211.5
2015-Apr-18 05:33N 55°18' E 012°42'1312.6
2015-Apr-18 04:34N 55°16' E 013°04'1313.0
2015-Apr-18 03:33N 55°16' E 013°27'16812.0
2015-Apr-17 13:33N 57°08' E 017°13'1413.6
2015-Apr-17 12:33N 57°21' E 017°19'1413.6
2015-Apr-17 11:32N 57°34' E 017°25'9 0.3
2015-Apr-16 04:27N 57°26' E 017°22'1213.6
2015-Apr-16 03:33N 57°14' E 017°17'12912.6
2015-Apr-15 17:21N 55°30' E 014°59'1414.6
2015-Apr-15 16:21N 55°22' E 014°38'1214.5
2015-Apr-15 15:33N 55°14' E 014°24'1313.4
2015-Apr-15 14:33N 55°10' E 014°01'1414.4
2015-Apr-15 13:33N 55°10' E 013°36'1713.8
2015-Apr-15 12:20N 55°12' E 013°06'1114.0
2015-Apr-15 11:31N 55°16' E 012°47'1010.7
2015-Apr-15 10:33N 55°25' E 012°40'1312.7
2015-Apr-15 09:34N 55°38' E 012°42'1413.9
2015-Apr-15 08:33N 55°52' E 012°41'1313.5
2015-Apr-15 07:33N 56°05' E 012°35'1414.2
2015-Apr-15 06:33N 56°16' E 012°20'1815.1
2015-Apr-15 05:22N 56°33' E 012°12'1215.1
2015-Apr-15 04:33N 56°45' E 012°06'1515.3
2015-Apr-15 03:33N 57°00' E 011°59'1515.0
2015-Apr-15 02:33N 57°15' E 011°51'1515.0
2015-Apr-15 01:33N 57°29' E 011°41'1212.0
2015-Apr-15 00:34N 57°40' E 011°41'0 0.1
2015-Apr-14 23:34N 57°40' E 011°41'0 0.0
2015-Apr-14 22:33N 57°40' E 011°41'1 1.1
2015-Apr-14 21:34N 57°39' E 011°41'1110.8
2015-Apr-14 20:33N 57°39' E 011°21'1514.8
2015-Apr-14 19:33N 57°45' E 010°55'18514.0
2015-Apr-14 06:15N 55°40' E 006°44'1014.3
2015-Apr-14 05:33N 55°32' E 006°36'3916.1
2015-Apr-14 03:10N 54°58' E 006°01'5 7.4
2015-Apr-14 02:32N 54°55' E 005°57'1514.5
2015-Apr-14 01:29N 54°42' E 005°43'1814.5
2015-Apr-14 00:15N 54°26' E 005°27'1014.4
2015-Apr-13 23:33N 54°18' E 005°19'1414.2
2015-Apr-13 22:33N 54°05' E 005°07'1414.0
2015-Apr-13 21:33N 53°51' E 005°01'1413.7
2015-Apr-13 20:33N 53°39' E 004°52'1313.3
2015-Apr-13 19:33N 53°27' E 004°43'1413.4
2015-Apr-13 18:31N 53°14' E 004°33'1313.5
2015-Apr-13 17:33N 53°02' E 004°23'1313.5
2015-Apr-13 16:33N 52°50' E 004°14'1413.3
2015-Apr-13 15:32N 52°40' E 003°59'1413.4
2015-Apr-13 14:28N 52°30' E 003°42'1413.3
2015-Apr-13 13:24N 52°18' E 003°31'1614.1
2015-Apr-13 12:16N 52°03' E 003°24'1014.3
2015-Apr-13 11:33N 51°53' E 003°20'1413.6
2015-Apr-13 10:32N 51°39' E 003°21'1515.4
2015-Apr-13 09:33N 51°26' E 003°34'1312.5
2015-Apr-13 08:33N 51°21' E 003°52'8 8.3
2015-Apr-13 07:34N 51°22' E 004°05'7 7.4
2015-Apr-13 06:34N 51°21' E 004°17'4 3.7
2015-Apr-13 05:33N 51°17' E 004°20'3 2.7
2015-Apr-13 04:33N 51°15' E 004°22'0 0.0
2015-Apr-13 03:34N 51°15' E 004°22'0 0.0
2015-Apr-13 02:33N 51°15' E 004°22'0 0.0
2015-Apr-13 01:33N 51°15' E 004°22'0 0.0
2015-Apr-13 00:33N 51°15' E 004°22'0 0.0
2015-Apr-12 23:33N 51°15' E 004°22'0 0.0
2015-Apr-12 22:34N 51°15' E 004°22'0 0.0
2015-Apr-12 21:33N 51°15' E 004°22'0 0.0
2015-Apr-12 20:33N 51°15' E 004°22'0 0.0
2015-Apr-12 19:33N 51°15' E 004°22'0 0.0
2015-Apr-12 18:33N 51°15' E 004°22'0 0.0
2015-Apr-12 17:33N 51°15' E 004°22'0 0.0
2015-Apr-12 16:33N 51°15' E 004°22'0 0.0
2015-Apr-12 15:33N 51°15' E 004°22'0 0.0
2015-Apr-12 14:33N 51°15' E 004°22'0 0.0
2015-Apr-12 13:33N 51°15' E 004°22'0 0.0
2015-Apr-12 12:34N 51°15' E 004°22'0 0.0
2015-Apr-12 11:33N 51°15' E 004°22'0 0.0
2015-Apr-12 10:33N 51°15' E 004°22'1 1.3
2015-Apr-12 09:32N 51°16' E 004°21'0 0.0
2015-Apr-12 08:32N 51°16' E 004°21'0 0.0
2015-Apr-12 07:32N 51°16' E 004°21'0 0.0
2015-Apr-12 06:29N 51°16' E 004°21'0 0.0
2015-Apr-12 05:32N 51°16' E 004°21'0 0.0
2015-Apr-12 04:32N 51°16' E 004°21'0 0.0
2015-Apr-12 03:32N 51°16' E 004°21'0 0.0
2015-Apr-12 02:32N 51°16' E 004°21'0 0.0
2015-Apr-12 01:32N 51°16' E 004°21'0 0.0
2015-Apr-12 00:32N 51°16' E 004°21'0 0.0
2015-Apr-11 23:32N 51°16' E 004°21'0 0.0
2015-Apr-11 22:32N 51°16' E 004°21'0 0.0
2015-Apr-11 21:32N 51°16' E 004°21'0 0.0
2015-Apr-11 20:32N 51°16' E 004°21'0 0.0
2015-Apr-11 19:32N 51°16' E 004°21'0 0.0
2015-Apr-11 18:32N 51°16' E 004°21'0 0.0
2015-Apr-11 17:32N 51°16' E 004°21'0 0.0
2015-Apr-11 16:32N 51°16' E 004°21'0 0.0
2015-Apr-11 15:33N 51°16' E 004°21'2 2.3
2015-Apr-11 14:33N 51°18' E 004°20'3 3.1
2015-Apr-11 13:33N 51°21' E 004°17'0 0.2
2015-Apr-11 12:33N 51°21' E 004°17'3 3.2
2015-Apr-11 11:33N 51°23' E 004°13'8 7.7
2015-Apr-11 10:34N 51°26' E 004°01'9 9.2
2015-Apr-11 09:33N 51°21' E 003°49'9 9.4
2015-Apr-11 08:33N 51°26' E 003°36'9 8.7
2015-Apr-11 07:33N 51°32' E 003°25'1212.5
2015-Apr-11 06:33N 51°43' E 003°16'10 9.5
2015-Apr-11 05:32N 51°52' E 003°19'3912.7
2015-Apr-11 02:26N 52°31' E 003°28'1213.5
2015-Apr-11 01:33N 52°42' E 003°37'1414.1
2015-Apr-11 00:33N 52°53' E 003°51'1413.6
2015-Apr-10 23:33N 53°02' E 004°08'1312.7
2015-Apr-10 22:32N 53°11' E 004°24'1211.8
2015-Apr-10 21:33N 53°22' E 004°31'1212.1
2015-Apr-10 20:33N 53°33' E 004°37'1212.4
2015-Apr-10 19:33N 53°45' E 004°41'1313.0
2015-Apr-10 18:33N 53°58' E 004°48'1513.3
2015-Apr-10 17:25N 54°12' E 004°58'21113.0
2015-Apr-10 01:10N 57°09' E 008°21'912.2
2015-Apr-10 00:27N 57°14' E 008°35'1312.4
2015-Apr-09 23:22N 57°21' E 008°56'5711.8
2015-Apr-09 18:31N 57°49' E 010°30'1110.7
2015-Apr-09 17:31N 57°48' E 010°50'1211.9
2015-Apr-09 16:33N 57°40' E 011°05'1312.8
2015-Apr-09 15:33N 57°31' E 011°21'1313.4
2015-Apr-09 14:33N 57°19' E 011°32'1313.1
2015-Apr-09 13:33N 57°07' E 011°40'1313.0
2015-Apr-09 12:33N 56°54' E 011°48'1312.7
2015-Apr-09 11:33N 56°42' E 011°55'1312.9
2015-Apr-09 10:33N 56°30' E 012°00'1312.9
2015-Apr-09 09:33N 56°20' E 012°15'1413.5
2015-Apr-09 08:33N 56°09' E 012°30'1414.5
2015-Apr-09 07:33N 55°57' E 012°43'1413.8
2015-Apr-09 06:34N 55°43' E 012°41'1111.1
2015-Apr-09 05:34N 55°32' E 012°43'1312.9
2015-Apr-09 04:33N 55°19' E 012°40'1312.7
2015-Apr-09 03:34N 55°15' E 013°01'1313.1
2015-Apr-09 02:33N 55°15' E 013°24'1313.2
2015-Apr-09 01:33N 55°15' E 013°47'1413.5
2015-Apr-09 00:33N 55°14' E 014°11'1312.5
2015-Apr-08 23:33N 55°22' E 014°28'1313.0
2015-Apr-08 22:33N 55°29' E 014°47'1313.2
2015-Apr-08 21:33N 55°36' E 015°07'1313.3
2015-Apr-08 20:33N 55°43' E 015°27'  

Dump ship's entire track history